Accueil
METAR-TAF:

METAR-TAF

Aéroports :

Morgantown, Virginie-Occidentale, États-Unis

latitude: 39-38-58N, longitude: 079-55-16W, altitude: 380 m

Observation

Le bulletin a été fait il y a 36 minutes, à 13:53 UTC
Vent 6 kt de nord-ouest
Température -1°C
Humidité 59%
Pression 1023 hPa
Visibilité: 16.1 km
Ciel clair

METAR: KMGW 061353Z 31006KT 10SM CLR M01/M08 A3021 RMK AO2 SLP243 T10061078

Heure: 09:29 (14:29 UTC)

Prévision

Le bulletin a été fait il y a 2 heures et 59 minutes, à 11:30 UTC
Prévision valable du 06 à 12 UTC au 07 à 12 UTC
Vent kt de nord
Visibilité: 10 km
Ciel clair
A partir de 06 à 1800 UTC
Vent 9 kt de ouest/nord-ouest
Visibilité: 10 km
Ciel clair
A partir de 06 à 2200 UTC
Vent 4 kt de nord-ouest
Visibilité: 10 km
Ciel clair

TAF: KMGW 061130Z 0612/0712 00000KT P6SM SKC FM061800 29009KT P6SM SKC FM062200 32004KT P6SM SKC

Observations et prévisions météorologiques de plus de 4000 aéroports (messages METAR et TAF).

Les stations disponibles sont représentées par des disques jaunes et rouges sur la carte.

Passer la souris dessus pour voir le nom de la station.

Cliquer dessus pour voir les observations et prévisions météorologiques.

Pour changer de carte: cliquez sur les boutons verts avec une croix noire pour zoomer, sur le bouton vert avec un tiret pour effectuer un zoom arrière, ou sur les flèches vertes pour les cartes adjacentes.


METAR-TAF: